< < Back
Terminal Aerodrome Forecast


Current Version              Previous Versions:   1  2  3  4  5  6  7  8  9  

Terminal Aerodrome Forecast

891
FTUS42 KFFC 230500
TAFMCN
TAF
KMCN 230538Z 2306/2406 00000KT 4SM BR SKC
      TEMPO 2306/2308 6SM BR SKC
     FM231600 33004KT P6SM SKC
     FM240100 00000KT P6SM SCT250=



Latest METAR

550
SAUS80 KWBC 230900 RRA
MTRMCN
METAR KMCN 230853Z AUTO 00000KT 7SM CLR 04/04 A3008 RMK AO2 SLP183
T00440044 57003 TSNO


USA.gov is the U.S. government's official web portal to all federal, state and local government web resources and services.